Time;durP1;ratioP1;P1;durP2;ratioP2;P2;SDS_P1;SDS_P2;PMS_P1;PMS_P2;Temp;Humidity;BMP_temperature;BMP_pressure;BME280_temperature;BME280_humidity;BME280_pressure;Samples;Min_cycle;Max_cycle;Signal;HPM_P1;HPM_P2
2024/02/15 00:02:20;;;;;;;3.58;3.40;;;5.30;99.90;;;;;;5106225;28;20227;-78
2024/02/15 00:04:46;;;;;;;0.30;0.30;;;5.30;99.90;;;;;;5106252;28;20824;-75
2024/02/15 00:07:12;;;;;;;0.30;0.20;;;5.30;99.90;;;;;;5106547;28;20168;-77
2024/02/15 00:09:37;;;;;;;0.30;0.23;;;5.20;99.90;;;;;;5121528;27;20238;-76
2024/02/15 00:12:03;;;;;;;0.30;0.20;;;5.20;99.90;;;;;;5105749;28;20735;-78
2024/02/15 00:14:29;;;;;;;0.30;0.30;;;5.20;99.90;;;;;;5105763;28;20216;-75
2024/02/15 00:16:55;;;;;;;0.30;0.30;;;5.20;99.90;;;;;;5121770;27;20179;-78
2024/02/15 00:19:21;;;;;;;0.30;0.20;;;5.20;99.90;;;;;;5105501;28;20664;-78
2024/02/15 00:21:47;;;;;;;0.30;0.30;;;5.20;99.90;;;;;;5121977;27;20201;-78
2024/02/15 00:24:14;;;;;;;0.30;0.30;;;5.20;99.90;;;;;;5105985;28;20664;-75
2024/02/15 00:26:40;;;;;;;0.30;0.20;;;5.20;99.90;;;;;;5121726;28;20290;-78
2024/02/15 00:29:06;;;;;;;0.30;0.20;;;5.20;99.90;;;;;;5105884;28;20297;-75
2024/02/15 00:31:32;;;;;;;0.30;0.20;;;5.20;99.90;;;;;;5128106;27;20294;-75
2024/02/15 00:33:59;;;;;;;0.30;0.20;;;5.10;99.90;;;;;;5112466;28;20211;-75
2024/02/15 00:36:25;;;;;;;0.30;0.20;;;5.10;99.90;;;;;;5112680;28;20183;-78
2024/02/15 00:38:51;;;;;;;0.30;0.30;;;5.20;99.90;;;;;;5112489;28;20195;-75
2024/02/15 00:41:18;;;;;;;0.30;0.20;;;5.20;99.90;;;;;;5128501;27;20492;-78
2024/02/15 00:43:44;;;;;;;0.30;0.20;;;5.20;99.90;;;;;;5127790;27;20199;-75
2024/02/15 00:46:10;;;;;;;0.30;0.20;;;5.20;99.90;;;;;;5111191;28;20688;-78
2024/02/15 00:48:35;;;;;;;0.30;0.20;;;5.20;99.90;;;;;;5127801;27;20232;-78
2024/02/15 00:51:01;;;;;;;0.30;0.20;;;5.20;99.90;;;;;;5112742;27;20247;-78
2024/02/15 00:53:27;;;;;;;0.30;0.30;;;5.20;99.90;;;;;;5112282;27;20195;-75
2024/02/15 00:55:52;;;;;;;0.30;0.30;;;5.20;99.90;;;;;;5112538;27;20641;-78
2024/02/15 00:58:18;;;;;;;0.30;0.30;;;5.20;99.90;;;;;;5128022;27;20196;-75
2024/02/15 01:00:44;;;;;;;0.30;0.30;;;5.20;99.90;;;;;;5111234;27;20200;-75
2024/02/15 01:03:09;;;;;;;0.30;0.20;;;5.30;99.90;;;;;;5112171;28;20192;-75
2024/02/15 01:05:35;;;;;;;0.30;0.20;;;5.30;99.90;;;;;;5112506;27;20259;-75
2024/02/15 01:08:01;;;;;;;0.30;0.30;;;5.30;99.90;;;;;;5111943;27;20207;-75
2024/02/15 01:10:26;;;;;;;0.30;0.20;;;5.30;99.90;;;;;;5111942;27;20233;-75
2024/02/15 01:12:52;;;;;;;0.30;0.20;;;5.30;99.90;;;;;;5112056;27;20560;-75
2024/02/15 01:15:19;;;;;;;0.30;0.30;;;5.40;99.90;;;;;;5112449;27;20221;-78
2024/02/15 01:17:45;;;;;;;0.30;0.20;;;5.40;99.90;;;;;;5111586;28;20481;-78
2024/02/15 01:20:12;;;;;;;0.30;0.20;;;5.40;99.90;;;;;;5127524;27;20172;-75
2024/02/15 01:22:38;;;;;;;0.30;0.20;;;5.50;99.90;;;;;;5127496;27;20203;-76
2024/02/15 01:25:04;;;;;;;0.30;0.20;;;5.60;99.90;;;;;;5127875;27;20172;-78
2024/02/15 01:27:29;;;;;;;0.30;0.30;;;5.60;99.90;;;;;;5111849;27;20216;-79
2024/02/15 01:29:58;;;;;;;0.30;0.20;;;5.70;99.90;;;;;;5112085;27;20163;-75
2024/02/15 01:32:25;;;;;;;0.30;0.20;;;5.70;99.90;;;;;;5112190;27;20242;-78
2024/02/15 01:34:53;;;;;;;0.30;0.20;;;5.80;99.90;;;;;;5127499;27;20207;-75
2024/02/15 01:37:20;;;;;;;0.30;0.30;;;5.90;99.90;;;;;;5112089;27;20233;-78
2024/02/15 01:39:46;;;;;;;0.30;0.30;;;5.90;99.90;;;;;;5127389;27;20179;-75
2024/02/15 01:42:14;;;;;;;0.30;0.20;;;6.00;99.90;;;;;;5123851;27;20632;-75
2024/02/15 01:44:40;;;;;;;0.30;0.20;;;6.00;99.90;;;;;;5108957;28;20673;-75
2024/02/15 01:47:06;;;;;;;0.30;0.20;;;6.00;99.90;;;;;;5124469;27;20172;-75
2024/02/15 01:49:33;;;;;;;0.30;0.20;;;6.00;99.90;;;;;;5108695;28;20211;-77
2024/02/15 01:52:00;;;;;;;0.30;0.20;;;6.00;99.90;;;;;;5108568;28;20167;-78
2024/02/15 01:54:27;;;;;;;0.30;0.20;;;6.10;99.90;;;;;;5108696;28;20223;-78
2024/02/15 01:56:54;;;;;;;0.30;0.20;;;6.10;99.90;;;;;;5108510;28;20328;-75
2024/02/15 01:59:22;;;;;;;0.30;0.20;;;6.10;99.90;;;;;;5107966;28;20563;-75
2024/02/15 02:01:49;;;;;;;0.93;0.93;;;6.10;99.90;;;;;;5108055;28;20711;-75
2024/02/15 02:04:15;;;;;;;0.30;0.20;;;6.10;99.90;;;;;;5108226;28;20191;-75
2024/02/15 02:06:41;;;;;;;0.30;0.20;;;6.20;99.90;;;;;;5108300;28;20233;-75
2024/02/15 02:09:12;;;;;;;0.30;0.30;;;6.20;99.90;;;;;;5108244;28;20274;-78
2024/02/15 02:11:39;;;;;;;0.30;0.20;;;6.10;99.90;;;;;;5123514;27;20334;-75
2024/02/15 02:14:04;;;;;;;0.30;0.20;;;6.10;99.90;;;;;;5108049;28;20216;-78
2024/02/15 02:16:32;;;;;;;0.30;0.20;;;6.10;99.90;;;;;;5123830;27;20696;-75
2024/02/15 02:18:58;;;;;;;0.40;0.40;;;6.10;99.90;;;;;;5107485;28;20247;-75
2024/02/15 02:21:25;;;;;;;0.30;0.20;;;6.00;99.90;;;;;;5123941;27;20189;-78
2024/02/15 02:23:58;;;;;;;0.30;0.20;;;6.00;99.90;;;;;;5107677;28;20227;-78
2024/02/15 02:26:25;;;;;;;0.30;0.20;;;6.00;99.90;;;;;;5108064;28;20190;-75
2024/02/15 02:28:54;;;;;;;0.30;0.20;;;5.90;99.90;;;;;;5107686;28;20230;-78
2024/02/15 02:31:21;;;;;;;0.30;0.20;;;5.90;99.90;;;;;;5123824;27;20621;-75
2024/02/15 02:33:52;;;;;;;0.30;0.20;;;5.90;99.90;;;;;;5107179;28;20200;-78
2024/02/15 02:36:18;;;;;;;0.30;0.20;;;5.90;99.90;;;;;;5107718;28;20160;-75
2024/02/15 02:38:45;;;;;;;0.30;0.30;;;5.90;99.90;;;;;;5123104;27;20235;-78
2024/02/15 02:41:12;;;;;;;0.30;0.20;;;5.90;99.90;;;;;;5107332;28;20176;-78
2024/02/15 02:43:41;;;;;;;0.30;0.20;;;5.90;99.90;;;;;;5107151;28;20256;-78
2024/02/15 02:46:10;;;;;;;0.30;0.20;;;5.90;99.90;;;;;;5108046;28;20164;-78
2024/02/15 02:48:36;;;;;;;0.30;0.20;;;5.90;99.90;;;;;;5107396;28;20668;-75
2024/02/15 02:51:02;;;;;;;0.30;0.20;;;5.90;99.90;;;;;;5107572;28;20172;-75
2024/02/15 02:53:28;;;;;;;0.30;0.30;;;5.90;99.90;;;;;;5107078;28;20692;-75
2024/02/15 02:55:56;;;;;;;0.30;0.20;;;5.90;99.90;;;;;;5107365;28;20420;-78
2024/02/15 02:58:22;;;;;;;0.30;0.20;;;5.90;99.90;;;;;;5107279;28;20288;-75
2024/02/15 03:00:52;;;;;;;0.30;0.20;;;5.90;99.90;;;;;;5107047;28;20179;-75
2024/02/15 03:03:20;;;;;;;0.30;0.20;;;5.80;99.90;;;;;;5106503;28;20234;-78
2024/02/15 03:05:46;;;;;;;0.30;0.20;;;5.80;99.90;;;;;;5123049;27;20554;-77
2024/02/15 03:08:17;;;;;;;0.30;0.20;;;5.80;99.90;;;;;;5122316;27;20203;-78
2024/02/15 03:10:43;;;;;;;0.30;0.20;;;5.80;99.90;;;;;;5106652;28;20227;-78
2024/02/15 03:13:08;;;;;;;0.30;0.30;;;5.70;99.90;;;;;;5122993;27;20558;-78
2024/02/15 03:15:35;;;;;;;0.30;0.30;;;5.70;99.90;;;;;;5106992;28;20947;-75
2024/02/15 03:18:06;;;;;;;0.30;0.30;;;5.70;99.90;;;;;;5122106;27;20462;-75
2024/02/15 03:20:33;;;;;;;0.30;0.20;;;5.70;99.90;;;;;;5106740;28;20217;-75
2024/02/15 03:23:01;;;;;;;0.30;0.20;;;5.70;99.90;;;;;;5106283;28;20328;-75
2024/02/15 03:25:31;;;;;;;0.30;0.20;;;5.60;99.90;;;;;;5123058;27;20617;-78
2024/02/15 03:27:58;;;;;;;0.30;0.20;;;5.60;99.90;;;;;;5106477;28;20569;-75
2024/02/15 03:30:26;;;;;;;0.30;0.30;;;5.60;99.90;;;;;;5106724;28;20163;-78
2024/02/15 03:32:53;;;;;;;0.30;0.20;;;5.60;99.90;;;;;;5106264;28;20649;-77
2024/02/15 03:35:22;;;;;;;0.30;0.30;;;5.60;99.90;;;;;;5106766;28;20211;-78
2024/02/15 03:37:50;;;;;;;0.30;0.20;;;5.60;99.90;;;;;;5122099;27;20202;-75
2024/02/15 03:40:17;;;;;;;0.30;0.30;;;5.60;99.90;;;;;;5106216;28;20171;-75
2024/02/15 03:42:42;;;;;;;0.30;0.20;;;5.60;99.90;;;;;;5121775;27;20256;-78
2024/02/15 03:45:08;;;;;;;0.30;0.30;;;5.60;99.90;;;;;;5106277;28;20633;-75
2024/02/15 03:47:37;;;;;;;0.30;0.20;;;5.60;99.90;;;;;;5121671;27;20762;-78
2024/02/15 03:50:06;;;;;;;1.85;1.85;;;5.50;99.90;;;;;;5121833;27;20172;-78
2024/02/15 03:52:32;;;;;;;0.30;0.20;;;5.30;99.90;;;;;;5121965;27;20603;-78
2024/02/15 03:54:59;;;;;;;0.30;0.30;;;5.30;99.90;;;;;;5122037;27;20668;-78
2024/02/15 03:57:25;;;;;;;0.30;0.20;;;5.30;99.90;;;;;;5121863;27;20175;-75
2024/02/15 03:59:52;;;;;;;0.30;0.20;;;5.40;99.90;;;;;;5105926;28;20206;-75
2024/02/15 04:02:19;;;;;;;41.22;38.80;;;5.50;99.90;;;;;;5105987;28;20255;-78
2024/02/15 04:04:47;;;;;;;0.30;0.20;;;5.70;99.90;;;;;;5104171;28;20307;-79
2024/02/15 04:07:17;;;;;;;1.88;1.88;;;5.90;99.90;;;;;;5121896;27;20214;-78
2024/02/15 04:09:42;;;;;;;0.30;0.20;;;6.00;99.90;;;;;;5106044;28;20634;-75
2024/02/15 04:12:08;;;;;;;0.30;0.20;;;6.00;99.90;;;;;;5121529;27;20238;-78
2024/02/15 04:14:34;;;;;;;0.30;0.30;;;6.10;99.90;;;;;;5106122;28;20341;-75
2024/02/15 04:17:01;;;;;;;0.30;0.30;;;6.20;99.90;;;;;;5105765;28;20410;-78
2024/02/15 04:19:27;;;;;;;0.30;0.20;;;6.20;99.90;;;;;;5105868;28;20434;-77
2024/02/15 04:21:55;;;;;;;0.30;0.20;;;6.30;99.90;;;;;;5105668;28;20171;-75
2024/02/15 04:24:21;;;;;;;0.30;0.20;;;6.30;99.90;;;;;;5121525;27;20211;-78
2024/02/15 04:26:48;;;;;;;0.30;0.20;;;6.40;99.90;;;;;;5105951;28;20270;-78
2024/02/15 04:29:14;;;;;;;0.30;0.20;;;6.50;99.90;;;;;;5105772;28;20286;-75
2024/02/15 04:31:42;;;;;;;0.30;0.20;;;6.50;99.90;;;;;;5121406;28;20180;-75
2024/02/15 04:34:09;;;;;;;0.30;0.20;;;6.60;99.90;;;;;;5105511;28;20211;-78
2024/02/15 04:36:36;;;;;;;0.30;0.30;;;6.70;99.90;;;;;;5106202;28;20174;-78
2024/02/15 04:39:02;;;;;;;0.30;0.20;;;6.70;99.90;;;;;;5105415;28;20202;-75
2024/02/15 04:41:28;;;;;;;0.30;0.30;;;6.70;99.90;;;;;;5121680;28;20187;-75
2024/02/15 04:43:54;;;;;;;0.30;0.20;;;6.70;99.90;;;;;;5105452;28;20200;-75
2024/02/15 04:46:21;;;;;;;0.30;0.30;;;6.70;99.90;;;;;;5105518;28;20168;-77
2024/02/15 04:48:50;;;;;;;0.30;0.20;;;6.80;99.90;;;;;;5105595;28;20443;-77
2024/02/15 04:51:16;;;;;;;0.30;0.20;;;6.80;99.90;;;;;;5105725;28;20246;-79
2024/02/15 04:53:42;;;;;;;0.30;0.20;;;6.90;99.90;;;;;;5121180;28;20208;-76
2024/02/15 04:56:13;;;;;;;0.35;0.32;;;6.90;99.90;;;;;;5121526;28;20276;-79
2024/02/15 04:58:47;;;;;;;0.30;0.20;;;6.90;99.90;;;;;;5105326;28;20215;-76
2024/02/15 05:01:16;;;;;;;0.30;0.20;;;6.80;99.90;;;;;;5120807;28;20668;-79
2024/02/15 05:03:46;;;;;;;0.30;0.20;;;6.80;99.90;;;;;;5103099;28;20576;-79
2024/02/15 05:06:12;;;;;;;0.40;0.40;;;6.80;99.90;;;;;;5090432;28;20268;-76
2024/02/15 05:08:44;;;;;;;0.30;0.20;;;6.90;99.90;;;;;;5103766;28;20253;-79
2024/02/15 05:11:17;;;;;;;0.30;0.22;;;6.80;99.90;;;;;;5101035;28;20434;-76
2024/02/15 05:13:44;;;;;;;0.32;0.30;;;6.80;99.90;;;;;;5120770;28;20287;-76
2024/02/15 05:16:10;;;;;;;0.30;0.20;;;6.80;99.90;;;;;;5122108;27;20681;-78
2024/02/15 05:18:37;;;;;;;0.30;0.23;;;6.80;99.90;;;;;;5124238;27;20253;-75
2024/02/15 05:21:04;;;;;;;0.30;0.20;;;6.80;99.90;;;;;;5124460;27;20386;-75
2024/02/15 05:23:30;;;;;;;0.30;0.20;;;6.80;99.90;;;;;;5124414;27;20657;-75
2024/02/15 05:25:56;;;;;;;0.30;0.30;;;6.80;99.90;;;;;;5124546;27;20202;-75
2024/02/15 05:28:26;;;;;;;0.30;0.30;;;6.80;99.90;;;;;;5113838;27;20208;-76
2024/02/15 05:31:10;;;;;;;0.30;0.20;;;6.80;99.90;;;;;;5097698;28;20918;-78
2024/02/15 05:33:40;;;;;;;0.30;0.20;;;6.70;99.90;;;;;;5124097;27;20204;-79
2024/02/15 05:36:08;;;;;;;0.30;0.20;;;6.70;99.90;;;;;;5124254;27;20176;-78
2024/02/15 05:38:34;;;;;;;2.08;2.05;;;6.70;99.90;;;;;;5101560;28;20294;-78
2024/02/15 05:41:00;;;;;;;0.30;0.20;;;6.70;99.90;;;;;;5097350;28;20256;-76
2024/02/15 05:43:26;;;;;;;0.30;0.30;;;6.70;99.90;;;;;;5095701;28;20612;-78
2024/02/15 05:45:52;;;;;;;0.30;0.30;;;6.70;99.90;;;;;;5094418;28;20418;-75
2024/02/15 05:48:18;;;;;;;0.30;0.20;;;6.70;99.90;;;;;;5099552;28;20200;-78
2024/02/15 05:50:44;;;;;;;0.30;0.20;;;6.70;99.90;;;;;;5099532;28;20217;-78
2024/02/15 05:53:09;;;;;;;0.30;0.30;;;6.70;99.90;;;;;;5097024;28;20411;-76
2024/02/15 05:55:37;;;;;;;0.30;0.20;;;6.70;99.90;;;;;;5107261;28;20453;-78
2024/02/15 05:58:03;;;;;;;0.30;0.22;;;6.70;99.90;;;;;;5107813;28;20280;-75
2024/02/15 06:00:30;;;;;;;0.30;0.20;;;6.70;99.90;;;;;;5106242;28;20171;-78
2024/02/15 06:02:56;;;;;;;0.30;0.30;;;6.70;99.90;;;;;;5107886;28;20531;-75
2024/02/15 06:05:21;;;;;;;0.30;0.20;;;6.70;99.90;;;;;;5106483;28;20221;-79
2024/02/15 06:07:47;;;;;;;0.30;0.20;;;6.80;99.90;;;;;;5104655;27;20235;-75
2024/02/15 06:10:14;;;;;;;0.30;0.20;;;6.70;99.90;;;;;;5106353;28;20215;-75
2024/02/15 06:12:41;;;;;;;0.30;0.25;;;6.60;99.90;;;;;;5104858;28;20209;-75
2024/02/15 06:15:14;;;;;;;0.30;0.30;;;6.40;99.90;;;;;;5105538;28;20264;-77
2024/02/15 06:17:41;;;;;;;0.30;0.20;;;6.40;99.90;;;;;;5104705;28;20609;-78
2024/02/15 06:20:07;;;;;;;0.30;0.20;;;6.30;99.90;;;;;;5103808;28;20172;-75
2024/02/15 06:22:33;;;;;;;0.30;0.20;;;6.20;99.90;;;;;;5102455;28;20183;-75
2024/02/15 06:24:59;;;;;;;0.30;0.20;;;6.20;99.90;;;;;;5083182;28;20191;-75
2024/02/15 06:27:24;;;;;;;0.30;0.20;;;6.20;99.90;;;;;;5093868;28;20187;-75
2024/02/15 06:40:47;;;;;;;0.30;0.20;;;6.00;99.90;;;;;;5105206;28;20198;-78
2024/02/15 06:43:13;;;;;;;0.30;0.20;;;6.10;99.90;;;;;;5104739;28;20618;-75
2024/02/15 06:45:44;;;;;;;0.30;0.20;;;6.20;99.90;;;;;;5105634;28;20224;-78
2024/02/15 06:48:10;;;;;;;0.30;0.20;;;6.20;99.90;;;;;;5101803;28;20268;-78
2024/02/15 06:50:37;;;;;;;0.30;0.20;;;6.20;99.90;;;;;;5102873;28;20161;-79
2024/02/15 06:53:03;;;;;;;0.30;0.20;;;6.30;99.90;;;;;;5102719;28;20332;-76
2024/02/15 06:55:28;;;;;;;1.27;1.27;;;6.40;99.90;;;;;;5104107;28;20329;-79
2024/02/15 06:57:55;;;;;;;0.30;0.20;;;6.40;99.90;;;;;;5118929;27;20253;-75
2024/02/15 07:00:21;;;;;;;0.30;0.20;;;6.50;99.90;;;;;;5115607;27;20232;-76
2024/02/15 07:02:48;;;;;;;0.30;0.30;;;6.50;99.90;;;;;;5100015;28;20204;-75
2024/02/15 07:05:14;;;;;;;0.30;0.20;;;6.40;99.90;;;;;;5095260;28;20222;-76
2024/02/15 07:07:42;;;;;;;0.30;0.30;;;6.50;99.90;;;;;;5093575;27;20208;-79
2024/02/15 07:10:09;;;;;;;0.30;0.20;;;6.50;99.90;;;;;;5094670;27;20183;-79
2024/02/15 07:12:37;;;;;;;0.30;0.20;;;6.50;99.90;;;;;;5098606;27;20227;-76
2024/02/15 07:15:06;;;;;;;0.30;0.20;;;6.60;99.90;;;;;;5099665;28;20207;-80
2024/02/15 07:17:32;;;;;;;0.30;0.20;;;6.70;99.90;;;;;;5094368;27;20225;-76
2024/02/15 07:19:58;;;;;;;0.30;0.20;;;6.80;99.90;;;;;;5125456;27;20176;-80
2024/02/15 07:22:24;;;;;;;0.30;0.20;;;6.90;99.90;;;;;;5098150;28;20416;-76
2024/02/15 07:24:50;;;;;;;2.00;1.23;;;7.10;99.90;;;;;;5096848;28;20171;-79
2024/02/15 07:27:15;;;;;;;1.20;1.17;;;7.10;99.90;;;;;;5097593;28;20221;-79
2024/02/15 07:29:41;;;;;;;0.30;0.20;;;7.20;99.90;;;;;;5087716;28;20267;-79
2024/02/15 07:32:08;;;;;;;0.30;0.20;;;7.30;99.90;;;;;;5101717;28;20176;-76
2024/02/15 07:34:34;;;;;;;0.60;0.60;;;7.30;99.90;;;;;;5100608;28;20617;-78
2024/02/15 07:36:59;;;;;;;0.30;0.20;;;7.50;99.90;;;;;;5099571;28;20168;-77
2024/02/15 07:39:27;;;;;;;0.30;0.20;;;7.50;99.90;;;;;;5099109;28;20462;-79
2024/02/15 07:41:58;;;;;;;0.30;0.20;;;7.70;99.90;;;;;;5095608;28;20213;-76
2024/02/15 07:44:24;;;;;;;0.30;0.30;;;7.80;99.90;;;;;;5093776;28;20243;-78
2024/02/15 07:46:50;;;;;;;0.30;0.30;;;7.80;99.90;;;;;;5092270;28;20184;-78
2024/02/15 07:49:19;;;;;;;0.30;0.20;;;7.90;99.90;;;;;;5094305;28;20212;-75
2024/02/15 07:51:52;;;;;;;0.30;0.20;;;8.10;99.90;;;;;;5097130;28;20179;-74
2024/02/15 07:54:21;;;;;;;0.30;0.20;;;8.30;99.90;;;;;;5096684;28;20703;-82
2024/02/15 07:56:50;;;;;;;0.30;0.20;;;8.40;99.90;;;;;;5092247;28;20328;-82
2024/02/15 07:59:19;;;;;;;0.65;0.65;;;8.60;99.90;;;;;;5099298;28;20381;-84
2024/02/15 08:01:47;;;;;;;0.30;0.20;;;8.70;99.90;;;;;;5112896;27;20191;-75
2024/02/15 08:04:13;;;;;;;0.30;0.30;;;8.90;99.90;;;;;;5097355;28;20649;-79
2024/02/15 08:06:38;;;;;;;0.30;0.30;;;9.00;99.90;;;;;;5093968;28;20183;-76
2024/02/15 08:09:13;;;;;;;0.30;0.20;;;9.20;99.90;;;;;;5115777;27;20248;-75
2024/02/15 08:11:42;;;;;;;0.60;0.60;;;9.30;99.90;;;;;;5093352;28;20724;-75
2024/02/15 08:14:10;;;;;;;0.30;0.20;;;9.40;99.90;;;;;;5094303;28;20233;-80
2024/02/15 08:16:37;;;;;;;0.68;0.68;;;9.50;99.90;;;;;;5090636;28;20600;-76
2024/02/15 08:19:05;;;;;;;0.30;0.20;;;9.70;99.90;;;;;;5090670;28;20210;-76
2024/02/15 08:21:36;;;;;;;7.40;4.32;;;9.80;99.90;;;;;;5107541;27;20433;-78
2024/02/15 08:24:05;;;;;;;0.55;0.55;;;9.90;99.90;;;;;;5082127;28;20283;-79
2024/02/15 08:26:37;;;;;;;0.50;0.50;;;10.00;99.90;;;;;;5095939;28;20186;-79
2024/02/15 08:29:05;;;;;;;0.30;0.30;;;10.00;99.90;;;;;;5098219;28;20543;-79
2024/02/15 08:31:32;;;;;;;0.30;0.30;;;10.00;99.90;;;;;;5096671;28;20188;-78
2024/02/15 08:33:58;;;;;;;0.30;0.20;;;10.00;99.90;;;;;;5094751;28;20212;-75
2024/02/15 08:36:24;;;;;;;0.30;0.20;;;10.00;99.90;;;;;;5110225;28;20650;-76
2024/02/15 08:38:50;;;;;;;0.40;0.33;;;10.00;99.90;;;;;;5099800;28;20220;-78
2024/02/15 08:41:18;;;;;;;0.30;0.30;;;10.00;99.90;;;;;;5091680;28;20176;-76
2024/02/15 08:43:44;;;;;;;1.10;1.10;;;10.00;99.90;;;;;;5110267;28;20220;-78
2024/02/15 08:46:10;;;;;;;0.30;0.30;;;10.10;99.90;;;;;;5092866;28;20180;-76
2024/02/15 08:48:36;;;;;;;0.30;0.30;;;10.10;99.90;;;;;;5092204;28;20706;-80
2024/02/15 08:51:02;;;;;;;0.82;0.82;;;10.10;99.90;;;;;;5099867;28;20176;-78
2024/02/15 08:53:27;;;;;;;0.32;0.30;;;10.20;99.90;;;;;;5100188;28;20215;-75
2024/02/15 08:55:54;;;;;;;0.30;0.20;;;10.20;99.90;;;;;;5098395;28;20212;-78
2024/02/15 08:58:21;;;;;;;0.30;0.20;;;10.30;99.90;;;;;;5100063;28;20231;-79
2024/02/15 09:00:47;;;;;;;1.35;1.35;;;10.40;99.90;;;;;;5112616;27;20654;-79
2024/02/15 09:03:12;;;;;;;3.90;2.30;;;10.40;99.90;;;;;;5097375;28;20303;-76
2024/02/15 09:05:40;;;;;;;0.30;0.20;;;10.50;99.90;;;;;;5110503;27;20725;-77
2024/02/15 09:08:06;;;;;;;1.33;1.33;;;10.50;99.90;;;;;;5112166;27;20731;-75
2024/02/15 09:10:32;;;;;;;0.40;0.20;;;10.60;99.90;;;;;;5093675;28;20208;-75
2024/02/15 09:12:58;;;;;;;0.30;0.20;;;10.70;99.90;;;;;;5095121;28;20204;-75
2024/02/15 09:15:24;;;;;;;5.03;4.63;;;10.90;99.90;;;;;;5094974;28;20211;-78
2024/02/15 09:17:50;;;;;;;0.30;0.20;;;11.00;99.90;;;;;;5097875;28;20195;-78
2024/02/15 09:20:18;;;;;;;0.40;0.30;;;11.00;99.90;;;;;;5112672;27;20253;-76
2024/02/15 09:22:49;;;;;;;0.30;0.20;;;11.10;99.90;;;;;;5117596;27;20269;-75
2024/02/15 09:25:16;;;;;;;0.30;0.20;;;11.20;99.90;;;;;;5100353;28;20187;-78
2024/02/15 09:27:43;;;;;;;0.30;0.20;;;11.10;99.90;;;;;;5097495;28;20211;-77
2024/02/15 09:30:09;;;;;;;0.30;0.20;;;11.10;99.90;;;;;;5100715;28;20211;-76
2024/02/15 09:32:36;;;;;;;0.50;0.50;;;11.20;99.90;;;;;;5102440;28;20278;-78
2024/02/15 09:35:02;;;;;;;0.30;0.20;;;11.20;99.90;;;;;;5096517;28;20215;-77
2024/02/15 09:37:28;;;;;;;0.47;0.40;;;11.20;99.90;;;;;;5103261;27;20541;-76
2024/02/15 09:39:54;;;;;;;0.30;0.20;;;11.30;99.90;;;;;;5102624;27;20447;-77
2024/02/15 09:42:21;;;;;;;0.43;0.43;;;11.40;99.90;;;;;;5112008;27;20599;-77
2024/02/15 09:44:47;;;;;;;0.30;0.20;;;11.50;99.90;;;;;;5098283;28;20416;-76
2024/02/15 09:47:15;;;;;;;0.40;0.30;;;11.50;99.90;;;;;;5100921;28;20272;-77
2024/02/15 09:49:41;;;;;;;0.30;0.20;;;11.50;99.90;;;;;;5099096;28;20215;-77
2024/02/15 09:52:15;;;;;;;0.30;0.20;;;11.50;99.90;;;;;;5098946;28;20190;-78
2024/02/15 09:54:45;;;;;;;0.30;0.20;;;11.50;99.90;;;;;;5092985;28;20796;-76
2024/02/15 09:57:11;;;;;;;8.90;8.50;;;11.60;99.90;;;;;;5098604;28;20207;-78
2024/02/15 09:59:38;;;;;;;0.70;0.40;;;11.60;99.90;;;;;;5095883;28;20199;-76
2024/02/15 10:02:10;;;;;;;0.30;0.20;;;11.70;99.90;;;;;;5089128;28;20557;-77
2024/02/15 10:04:39;;;;;;;0.40;0.37;;;11.70;99.90;;;;;;5093687;28;20684;-77
2024/02/15 10:07:05;;;;;;;0.30;0.20;;;11.80;99.90;;;;;;5099142;28;20463;-78
2024/02/15 10:09:31;;;;;;;0.40;0.40;;;11.80;99.90;;;;;;5092767;28;20627;-79
2024/02/15 10:11:59;;;;;;;0.30;0.20;;;11.80;99.90;;;;;;5098544;28;20530;-76
2024/02/15 10:14:26;;;;;;;0.50;0.50;;;11.80;99.90;;;;;;5100894;28;20392;-77
2024/02/15 10:16:55;;;;;;;0.70;0.67;;;11.80;99.90;;;;;;5104986;27;20172;-78
2024/02/15 10:19:25;;;;;;;0.40;0.40;;;11.80;99.90;;;;;;5096965;28;20452;-77
2024/02/15 10:21:57;;;;;;;0.30;0.30;;;11.90;99.90;;;;;;5101555;28;20188;-77
2024/02/15 10:24:27;;;;;;;0.30;0.20;;;11.90;99.90;;;;;;5093289;28;20613;-77
2024/02/15 10:27:03;;;;;;;0.33;0.30;;;11.90;99.90;;;;;;5097691;28;21104;-77
2024/02/15 10:29:36;;;;;;;0.30;0.20;;;12.00;99.90;;;;;;5091291;28;20757;-76
2024/02/15 10:32:03;;;;;;;0.30;0.20;;;12.00;99.90;;;;;;5098342;28;20423;-77
2024/02/15 10:34:30;;;;;;;0.47;0.47;;;12.10;99.90;;;;;;5097580;28;21024;-77
2024/02/15 10:37:14;;;;;;;1.90;1.70;;;12.10;99.90;;;;;;5096367;28;20482;-77
2024/02/15 10:39:42;;;;;;;0.30;0.20;;;12.20;99.90;;;;;;5099640;28;20713;-77
2024/02/15 10:42:11;;;;;;;0.30;0.30;;;12.20;99.90;;;;;;5115979;27;20472;-77
2024/02/15 10:44:38;;;;;;;2.33;2.23;;;12.30;99.90;;;;;;5098822;28;20447;-76
2024/02/15 10:47:07;;;;;;;0.30;0.30;;;12.30;99.90;;;;;;5096228;28;20447;-77
2024/02/15 10:49:35;;;;;;;0.60;0.60;;;12.40;99.90;;;;;;5095460;27;20487;-77
2024/02/15 10:52:04;;;;;;;1.27;1.17;;;12.40;99.90;;;;;;5097486;28;20416;-76
2024/02/15 10:54:59;;;;;;;0.30;0.20;;;12.50;99.90;;;;;;5095181;28;20992;-77
2024/02/15 10:57:26;;;;;;;7.40;4.10;;;12.50;99.90;;;;;;5062210;28;20539;-80
2024/02/15 11:00:02;;;;;;;2.50;2.40;;;12.50;99.90;;;;;;5099657;28;20924;-76
2024/02/15 11:02:29;;;;;;;1.57;1.47;;;12.50;99.90;;;;;;5100018;28;20512;-78
2024/02/15 11:05:03;;;;;;;12.10;11.07;;;12.50;99.90;;;;;;5100734;28;20427;-77
2024/02/15 11:07:30;;;;;;;0.53;0.53;;;12.60;99.90;;;;;;5099572;28;20496;-76
2024/02/15 11:09:56;;;;;;;0.30;0.30;;;12.60;99.90;;;;;;5102106;28;20412;-79
2024/02/15 11:12:23;;;;;;;0.30;0.20;;;12.70;99.90;;;;;;5100221;28;20472;-78
2024/02/15 11:14:51;;;;;;;2.77;2.67;;;12.70;99.90;;;;;;5099761;28;20474;-78
2024/02/15 11:17:48;;;;;;;0.70;0.70;;;12.80;99.90;;;;;;5097905;28;20424;-77
2024/02/15 11:20:32;;;;;;;0.50;0.50;;;12.80;99.90;;;;;;5098872;28;20416;-78
2024/02/15 11:22:59;;;;;;;4.23;3.87;;;12.80;99.90;;;;;;5098950;28;20456;-77
2024/02/15 11:25:36;;;;;;;0.30;0.20;;;12.90;99.90;;;;;;5091120;28;20469;-79
2024/02/15 11:28:21;;;;;;;0.90;0.90;;;13.00;99.90;;;;;;5099349;28;20789;-77
2024/02/15 11:30:50;;;;;;;0.40;0.20;;;13.20;99.90;;;;;;5090554;28;20957;-77
2024/02/15 11:33:27;;;;;;;0.40;0.30;;;13.30;99.90;;;;;;5089097;28;20517;-76
2024/02/15 11:36:07;;;;;;;0.30;0.20;;;13.40;99.90;;;;;;5091659;28;20468;-76
2024/02/15 11:38:36;;;;;;;0.40;0.40;;;13.60;99.90;;;;;;5095683;28;20451;-76
2024/02/15 11:41:04;;;;;;;2.83;2.53;;;13.70;99.90;;;;;;5091102;28;20441;-76
2024/02/15 11:43:49;;;;;;;0.40;0.30;;;13.70;99.90;;;;;;5089649;28;20540;-76
2024/02/15 11:46:19;;;;;;;0.30;0.30;;;13.80;99.90;;;;;;5098610;27;20428;-76
2024/02/15 11:48:46;;;;;;;0.77;0.60;;;13.90;99.90;;;;;;5088203;28;20493;-78
2024/02/15 11:51:42;;;;;;;0.30;0.20;;;13.90;99.90;;;;;;5088503;28;20428;-77
2024/02/15 11:54:14;;;;;;;0.30;0.30;;;14.00;99.90;;;;;;5089396;28;20697;-77
2024/02/15 11:57:04;;;;;;;0.30;0.20;;;14.00;99.90;;;;;;5089069;28;20778;-76
2024/02/15 11:59:42;;;;;;;0.30;0.20;;;14.00;99.90;;;;;;5088593;28;20659;-79
2024/02/15 12:18:47;;;;;;;2.03;1.93;;;14.00;99.90;;;;;;5094854;28;21112;-76
2024/02/15 12:21:17;;;;;;;0.37;0.20;;;14.10;99.90;;;;;;5088330;28;20552;-78
2024/02/15 12:23:43;;;;;;;0.30;0.20;;;14.20;99.90;;;;;;5084514;28;20526;-78
2024/02/15 12:26:09;;;;;;;0.30;0.20;;;14.20;99.90;;;;;;5090738;28;20436;-78
2024/02/15 12:28:35;;;;;;;1.93;1.83;;;14.30;99.90;;;;;;5095178;28;20507;-79
2024/02/15 12:31:02;;;;;;;0.30;0.20;;;14.30;99.90;;;;;;5093333;28;20430;-78
2024/02/15 12:33:27;;;;;;;0.50;0.50;;;14.40;99.90;;;;;;5094725;28;20282;-78
2024/02/15 12:36:07;;;;;;;0.30;0.20;;;14.40;99.90;;;;;;5092133;28;20684;-78
2024/02/15 12:38:37;;;;;;;2.63;2.53;;;14.30;99.90;;;;;;5094967;28;20241;-79
2024/02/15 12:41:04;;;;;;;1.63;1.30;;;14.40;99.90;;;;;;5095981;28;20412;-77
2024/02/15 12:43:30;;;;;;;0.30;0.20;;;14.40;99.90;;;;;;5094195;28;20481;-78
2024/02/15 12:45:56;;;;;;;0.30;0.20;;;14.40;99.90;;;;;;5093015;28;20509;-78
2024/02/15 12:48:22;;;;;;;1.40;1.40;;;14.40;99.90;;;;;;5089831;28;20610;-77
2024/02/15 12:50:48;;;;;;;0.30;0.20;;;14.30;99.90;;;;;;5092972;28;20427;-78
2024/02/15 12:53:21;;;;;;;0.40;0.40;;;14.20;99.90;;;;;;5096540;28;20502;-78
2024/02/15 12:55:54;;;;;;;0.30;0.20;;;14.20;99.90;;;;;;5095307;28;20211;-78
2024/02/15 12:58:20;;;;;;;8.13;2.23;;;14.10;99.90;;;;;;5108986;27;21020;-78
2024/02/15 13:00:46;;;;;;;1.47;1.13;;;14.20;99.90;;;;;;5090966;28;20424;-78
2024/02/15 13:03:14;;;;;;;0.30;0.20;;;14.30;99.90;;;;;;5101285;28;20795;-77
2024/02/15 13:05:40;;;;;;;0.30;0.20;;;14.20;99.90;;;;;;5094677;28;20293;-79
2024/02/15 13:08:10;;;;;;;0.30;0.20;;;14.30;99.90;;;;;;5094329;28;20467;-77
2024/02/15 13:10:36;;;;;;;0.50;0.30;;;14.30;99.90;;;;;;5093972;28;20292;-79
2024/02/15 13:13:02;;;;;;;0.30;0.20;;;14.30;99.90;;;;;;5095219;28;20729;-76
2024/02/15 13:15:32;;;;;;;0.97;0.97;;;14.40;99.90;;;;;;5092458;28;20555;-78
2024/02/15 13:17:59;;;;;;;0.30;0.20;;;14.40;99.90;;;;;;5095755;28;20547;-77
2024/02/15 13:20:37;;;;;;;0.30;0.20;;;14.50;99.90;;;;;;5096174;28;20461;-77
2024/02/15 13:23:25;;;;;;;0.40;0.20;;;14.40;99.90;;;;;;5090150;28;20451;-78
2024/02/15 13:25:52;;;;;;;1.13;1.13;;;14.40;99.90;;;;;;5091890;28;20870;-78